sensor_id;sensor_type;location;lat;lon;timestamp;P1;durP1;ratioP1;P2;durP2;ratioP2
74291;SDS011;62687;55.738;37.516;2023-03-23T00:02:22;5.57;;;2.20;;
74291;SDS011;62687;55.738;37.516;2023-03-23T00:05:10;3.58;;;1.55;;
74291;SDS011;62687;55.738;37.516;2023-03-23T00:07:55;3.95;;;2.08;;
74291;SDS011;62687;55.738;37.516;2023-03-23T00:10:39;3.10;;;1.70;;
74291;SDS011;62687;55.738;37.516;2023-03-23T00:13:24;4.28;;;2.35;;
74291;SDS011;62687;55.738;37.516;2023-03-23T00:16:08;3.53;;;2.00;;
74291;SDS011;62687;55.738;37.516;2023-03-23T00:19:06;4.63;;;2.30;;
74291;SDS011;62687;55.738;37.516;2023-03-23T00:21:51;3.83;;;2.15;;
74291;SDS011;62687;55.738;37.516;2023-03-23T00:27:21;5.80;;;1.95;;
74291;SDS011;62687;55.738;37.516;2023-03-23T00:32:51;3.83;;;2.00;;
74291;SDS011;62687;55.738;37.516;2023-03-23T00:35:35;4.15;;;2.47;;
74291;SDS011;62687;55.738;37.516;2023-03-23T00:38:20;4.95;;;2.40;;
74291;SDS011;62687;55.738;37.516;2023-03-23T00:41:07;3.45;;;1.92;;
74291;SDS011;62687;55.738;37.516;2023-03-23T00:43:56;4.25;;;1.63;;
74291;SDS011;62687;55.738;37.516;2023-03-23T00:46:41;4.07;;;1.83;;
74291;SDS011;62687;55.738;37.516;2023-03-23T00:49:28;5.18;;;1.90;;
74291;SDS011;62687;55.738;37.516;2023-03-23T00:52:13;2.78;;;1.60;;
74291;SDS011;62687;55.738;37.516;2023-03-23T00:54:57;3.28;;;1.48;;
74291;SDS011;62687;55.738;37.516;2023-03-23T00:57:41;3.03;;;1.58;;
74291;SDS011;62687;55.738;37.516;2023-03-23T01:00:25;3.08;;;1.50;;
74291;SDS011;62687;55.738;37.516;2023-03-23T01:03:09;3.17;;;1.70;;
74291;SDS011;62687;55.738;37.516;2023-03-23T01:06:05;3.03;;;1.45;;
74291;SDS011;62687;55.738;37.516;2023-03-23T01:08:52;3.65;;;1.90;;
74291;SDS011;62687;55.738;37.516;2023-03-23T01:11:37;3.70;;;1.90;;
74291;SDS011;62687;55.738;37.516;2023-03-23T01:14:22;6.68;;;1.90;;
74291;SDS011;62687;55.738;37.516;2023-03-23T01:17:06;2.83;;;1.77;;
74291;SDS011;62687;55.738;37.516;2023-03-23T01:19:51;4.28;;;1.70;;
74291;SDS011;62687;55.738;37.516;2023-03-23T01:22:35;3.08;;;1.83;;
74291;SDS011;62687;55.738;37.516;2023-03-23T01:25:19;3.58;;;1.92;;
74291;SDS011;62687;55.738;37.516;2023-03-23T01:28:04;2.90;;;1.60;;
74291;SDS011;62687;55.738;37.516;2023-03-23T01:30:48;4.22;;;1.65;;
74291;SDS011;62687;55.738;37.516;2023-03-23T01:33:32;1.85;;;1.30;;
74291;SDS011;62687;55.738;37.516;2023-03-23T01:36:18;3.42;;;1.63;;
74291;SDS011;62687;55.738;37.516;2023-03-23T01:39:05;3.72;;;1.90;;
74291;SDS011;62687;55.738;37.516;2023-03-23T01:41:49;3.47;;;1.60;;
74291;SDS011;62687;55.738;37.516;2023-03-23T01:47:19;3.30;;;1.90;;
74291;SDS011;62687;55.738;37.516;2023-03-23T01:50:07;3.28;;;1.80;;
74291;SDS011;62687;55.738;37.516;2023-03-23T01:52:52;4.22;;;2.00;;
74291;SDS011;62687;55.738;37.516;2023-03-23T01:55:39;4.45;;;1.90;;
74291;SDS011;62687;55.738;37.516;2023-03-23T01:58:26;2.50;;;1.42;;
74291;SDS011;62687;55.738;37.516;2023-03-23T02:01:14;3.50;;;1.83;;
74291;SDS011;62687;55.738;37.516;2023-03-23T02:04:00;3.53;;;2.00;;
74291;SDS011;62687;55.738;37.516;2023-03-23T02:06:44;3.00;;;1.95;;
74291;SDS011;62687;55.738;37.516;2023-03-23T02:09:29;3.72;;;2.20;;
74291;SDS011;62687;55.738;37.516;2023-03-23T02:12:13;8.48;;;2.03;;
74291;SDS011;62687;55.738;37.516;2023-03-23T02:14:58;2.80;;;1.85;;
74291;SDS011;62687;55.738;37.516;2023-03-23T02:26:54;4.18;;;1.92;;
74291;SDS011;62687;55.738;37.516;2023-03-23T02:29:55;3.10;;;1.60;;
74291;SDS011;62687;55.738;37.516;2023-03-23T02:35:56;3.33;;;1.75;;
74291;SDS011;62687;55.738;37.516;2023-03-23T02:39:10;3.63;;;1.60;;
74291;SDS011;62687;55.738;37.516;2023-03-23T02:42:04;4.43;;;2.22;;
74291;SDS011;62687;55.738;37.516;2023-03-23T02:44:50;3.03;;;1.60;;
74291;SDS011;62687;55.738;37.516;2023-03-23T02:47:38;2.97;;;1.92;;
74291;SDS011;62687;55.738;37.516;2023-03-23T02:50:25;4.95;;;2.17;;
74291;SDS011;62687;55.738;37.516;2023-03-23T02:53:12;4.32;;;1.80;;
74291;SDS011;62687;55.738;37.516;2023-03-23T02:55:59;3.60;;;2.17;;
74291;SDS011;62687;55.738;37.516;2023-03-23T02:58:46;3.53;;;1.92;;
74291;SDS011;62687;55.738;37.516;2023-03-23T03:04:17;3.28;;;1.77;;
74291;SDS011;62687;55.738;37.516;2023-03-23T03:07:11;4.57;;;2.03;;
74291;SDS011;62687;55.738;37.516;2023-03-23T03:13:33;4.88;;;2.38;;
74291;SDS011;62687;55.738;37.516;2023-03-23T03:16:42;5.82;;;2.20;;
74291;SDS011;62687;55.738;37.516;2023-03-23T03:19:40;3.00;;;1.90;;
74291;SDS011;62687;55.738;37.516;2023-03-23T03:22:29;7.30;;;1.95;;
74291;SDS011;62687;55.738;37.516;2023-03-23T03:25:14;4.22;;;2.03;;
74291;SDS011;62687;55.738;37.516;2023-03-23T03:28:00;5.05;;;2.17;;
74291;SDS011;62687;55.738;37.516;2023-03-23T03:30:51;4.10;;;1.90;;
74291;SDS011;62687;55.738;37.516;2023-03-23T03:33:38;4.43;;;2.03;;
74291;SDS011;62687;55.738;37.516;2023-03-23T03:36:24;4.63;;;2.13;;
74291;SDS011;62687;55.738;37.516;2023-03-23T03:39:13;4.18;;;2.00;;
74291;SDS011;62687;55.738;37.516;2023-03-23T03:41:59;4.72;;;1.90;;
74291;SDS011;62687;55.738;37.516;2023-03-23T03:44:43;4.88;;;2.25;;
74291;SDS011;62687;55.738;37.516;2023-03-23T03:47:27;4.40;;;1.90;;
74291;SDS011;62687;55.738;37.516;2023-03-23T03:50:12;10.25;;;2.60;;
74291;SDS011;62687;55.738;37.516;2023-03-23T03:52:56;4.53;;;2.35;;
74291;SDS011;62687;55.738;37.516;2023-03-23T03:55:41;3.58;;;1.92;;
74291;SDS011;62687;55.738;37.516;2023-03-23T03:58:29;4.00;;;2.00;;
74291;SDS011;62687;55.738;37.516;2023-03-23T04:01:17;4.25;;;1.80;;
74291;SDS011;62687;55.738;37.516;2023-03-23T04:04:02;4.63;;;2.28;;
74291;SDS011;62687;55.738;37.516;2023-03-23T04:06:47;4.90;;;2.40;;
74291;SDS011;62687;55.738;37.516;2023-03-23T04:09:32;5.18;;;2.58;;
74291;SDS011;62687;55.738;37.516;2023-03-23T04:12:16;5.45;;;2.60;;
74291;SDS011;62687;55.738;37.516;2023-03-23T04:15:00;7.28;;;2.30;;
74291;SDS011;62687;55.738;37.516;2023-03-23T04:17:44;4.85;;;2.38;;
74291;SDS011;62687;55.738;37.516;2023-03-23T04:20:28;8.20;;;2.83;;
74291;SDS011;62687;55.738;37.516;2023-03-23T04:23:13;6.18;;;2.30;;
74291;SDS011;62687;55.738;37.516;2023-03-23T04:25:58;10.70;;;3.75;;
74291;SDS011;62687;55.738;37.516;2023-03-23T04:28:42;8.15;;;2.72;;
74291;SDS011;62687;55.738;37.516;2023-03-23T04:31:27;7.20;;;2.78;;
74291;SDS011;62687;55.738;37.516;2023-03-23T04:34:11;5.90;;;2.95;;
74291;SDS011;62687;55.738;37.516;2023-03-23T04:36:58;5.45;;;2.70;;
74291;SDS011;62687;55.738;37.516;2023-03-23T04:39:43;5.68;;;3.03;;
74291;SDS011;62687;55.738;37.516;2023-03-23T04:42:29;6.47;;;3.08;;
74291;SDS011;62687;55.738;37.516;2023-03-23T04:45:16;6.60;;;3.33;;
74291;SDS011;62687;55.738;37.516;2023-03-23T04:48:07;11.60;;;3.45;;
74291;SDS011;62687;55.738;37.516;2023-03-23T04:50:51;8.70;;;3.63;;
74291;SDS011;62687;55.738;37.516;2023-03-23T04:53:36;6.70;;;3.22;;
74291;SDS011;62687;55.738;37.516;2023-03-23T04:56:20;7.03;;;3.67;;
74291;SDS011;62687;55.738;37.516;2023-03-23T04:59:04;7.30;;;3.80;;
74291;SDS011;62687;55.738;37.516;2023-03-23T05:01:49;8.70;;;4.00;;
74291;SDS011;62687;55.738;37.516;2023-03-23T05:04:33;6.90;;;3.55;;
74291;SDS011;62687;55.738;37.516;2023-03-23T05:07:17;6.97;;;3.60;;
74291;SDS011;62687;55.738;37.516;2023-03-23T05:10:02;8.35;;;3.47;;
74291;SDS011;62687;55.738;37.516;2023-03-23T05:12:46;6.50;;;3.65;;
74291;SDS011;62687;55.738;37.516;2023-03-23T05:15:31;7.93;;;3.85;;
74291;SDS011;62687;55.738;37.516;2023-03-23T05:18:15;6.93;;;3.92;;
74291;SDS011;62687;55.738;37.516;2023-03-23T05:21:00;7.35;;;3.38;;
74291;SDS011;62687;55.738;37.516;2023-03-23T05:23:45;12.63;;;3.72;;
74291;SDS011;62687;55.738;37.516;2023-03-23T05:26:30;12.02;;;4.20;;
74291;SDS011;62687;55.738;37.516;2023-03-23T05:29:16;8.77;;;2.95;;
74291;SDS011;62687;55.738;37.516;2023-03-23T05:31:59;13.20;;;4.55;;
74291;SDS011;62687;55.738;37.516;2023-03-23T05:34:44;15.50;;;4.88;;
74291;SDS011;62687;55.738;37.516;2023-03-23T05:37:30;8.15;;;4.18;;
74291;SDS011;62687;55.738;37.516;2023-03-23T05:40:17;7.82;;;3.50;;
74291;SDS011;62687;55.738;37.516;2023-03-23T05:43:01;12.13;;;4.72;;
74291;SDS011;62687;55.738;37.516;2023-03-23T05:45:46;10.55;;;4.28;;
74291;SDS011;62687;55.738;37.516;2023-03-23T05:48:30;8.65;;;3.15;;
74291;SDS011;62687;55.738;37.516;2023-03-23T05:51:15;11.15;;;4.30;;
74291;SDS011;62687;55.738;37.516;2023-03-23T05:53:58;8.98;;;4.93;;
74291;SDS011;62687;55.738;37.516;2023-03-23T05:56:43;9.18;;;3.80;;
74291;SDS011;62687;55.738;37.516;2023-03-23T05:59:27;7.72;;;3.65;;
74291;SDS011;62687;55.738;37.516;2023-03-23T06:02:11;12.13;;;4.90;;
74291;SDS011;62687;55.738;37.516;2023-03-23T06:04:57;6.85;;;4.00;;
74291;SDS011;62687;55.738;37.516;2023-03-23T06:07:42;11.63;;;4.72;;
74291;SDS011;62687;55.738;37.516;2023-03-23T06:10:27;12.82;;;4.40;;
74291;SDS011;62687;55.738;37.516;2023-03-23T06:13:12;7.88;;;4.13;;
74291;SDS011;62687;55.738;37.516;2023-03-23T06:15:56;12.13;;;3.75;;
74291;SDS011;62687;55.738;37.516;2023-03-23T06:18:41;8.75;;;5.78;;
74291;SDS011;62687;55.738;37.516;2023-03-23T06:24:10;8.32;;;3.70;;
74291;SDS011;62687;55.738;37.516;2023-03-23T06:26:54;7.70;;;3.53;;
74291;SDS011;62687;55.738;37.516;2023-03-23T06:29:38;14.02;;;5.22;;
74291;SDS011;62687;55.738;37.516;2023-03-23T06:32:24;13.80;;;5.40;;
74291;SDS011;62687;55.738;37.516;2023-03-23T06:35:12;13.30;;;5.40;;
74291;SDS011;62687;55.738;37.516;2023-03-23T06:37:57;9.00;;;2.78;;
74291;SDS011;62687;55.738;37.516;2023-03-23T06:40:45;19.77;;;5.13;;
74291;SDS011;62687;55.738;37.516;2023-03-23T06:43:30;11.27;;;5.30;;
74291;SDS011;62687;55.738;37.516;2023-03-23T06:46:14;11.48;;;5.30;;
74291;SDS011;62687;55.738;37.516;2023-03-23T06:48:59;14.55;;;5.65;;
74291;SDS011;62687;55.738;37.516;2023-03-23T06:51:43;11.85;;;5.22;;
74291;SDS011;62687;55.738;37.516;2023-03-23T06:54:27;9.90;;;4.78;;
74291;SDS011;62687;55.738;37.516;2023-03-23T06:57:11;9.20;;;5.10;;
74291;SDS011;62687;55.738;37.516;2023-03-23T06:59:55;10.30;;;4.60;;
74291;SDS011;62687;55.738;37.516;2023-03-23T07:02:40;14.05;;;5.38;;
74291;SDS011;62687;55.738;37.516;2023-03-23T07:05:24;11.63;;;5.30;;
74291;SDS011;62687;55.738;37.516;2023-03-23T07:08:08;11.20;;;4.95;;
74291;SDS011;62687;55.738;37.516;2023-03-23T07:10:55;13.07;;;4.35;;
74291;SDS011;62687;55.738;37.516;2023-03-23T07:13:39;9.70;;;4.93;;
74291;SDS011;62687;55.738;37.516;2023-03-23T07:16:24;10.27;;;4.97;;
74291;SDS011;62687;55.738;37.516;2023-03-23T07:19:08;8.68;;;4.18;;
74291;SDS011;62687;55.738;37.516;2023-03-23T07:21:52;8.95;;;4.28;;
74291;SDS011;62687;55.738;37.516;2023-03-23T07:24:36;7.18;;;3.15;;
74291;SDS011;62687;55.738;37.516;2023-03-23T07:27:20;9.68;;;4.13;;
74291;SDS011;62687;55.738;37.516;2023-03-23T07:30:05;15.00;;;5.57;;
74291;SDS011;62687;55.738;37.516;2023-03-23T07:32:49;11.65;;;4.13;;
74291;SDS011;62687;55.738;37.516;2023-03-23T07:35:35;12.27;;;4.38;;
74291;SDS011;62687;55.738;37.516;2023-03-23T07:41:03;22.58;;;5.32;;
74291;SDS011;62687;55.738;37.516;2023-03-23T07:43:48;7.40;;;3.38;;
74291;SDS011;62687;55.738;37.516;2023-03-23T07:46:32;7.40;;;3.65;;
74291;SDS011;62687;55.738;37.516;2023-03-23T07:49:17;12.63;;;4.38;;
74291;SDS011;62687;55.738;37.516;2023-03-23T07:54:46;9.68;;;3.95;;
74291;SDS011;62687;55.738;37.516;2023-03-23T07:57:31;5.40;;;3.33;;
74291;SDS011;62687;55.738;37.516;2023-03-23T08:00:16;10.13;;;4.25;;
74291;SDS011;62687;55.738;37.516;2023-03-23T08:03:06;27.83;;;5.07;;
74291;SDS011;62687;55.738;37.516;2023-03-23T08:05:51;7.60;;;3.70;;
74291;SDS011;62687;55.738;37.516;2023-03-23T08:08:35;5.55;;;2.75;;
74291;SDS011;62687;55.738;37.516;2023-03-23T08:11:20;9.50;;;4.32;;
74291;SDS011;62687;55.738;37.516;2023-03-23T08:14:04;10.48;;;2.97;;
74291;SDS011;62687;55.738;37.516;2023-03-23T08:16:49;19.35;;;5.00;;
74291;SDS011;62687;55.738;37.516;2023-03-23T08:19:33;12.63;;;3.75;;
74291;SDS011;62687;55.738;37.516;2023-03-23T08:22:20;7.78;;;3.53;;
74291;SDS011;62687;55.738;37.516;2023-03-23T08:25:05;7.28;;;3.40;;
74291;SDS011;62687;55.738;37.516;2023-03-23T08:27:50;5.50;;;3.03;;
74291;SDS011;62687;55.738;37.516;2023-03-23T08:30:34;12.95;;;4.05;;
74291;SDS011;62687;55.738;37.516;2023-03-23T08:33:21;7.80;;;3.97;;
74291;SDS011;62687;55.738;37.516;2023-03-23T08:36:05;11.35;;;5.47;;
74291;SDS011;62687;55.738;37.516;2023-03-23T08:38:50;6.95;;;3.40;;
74291;SDS011;62687;55.738;37.516;2023-03-23T08:41:35;7.43;;;3.63;;
74291;SDS011;62687;55.738;37.516;2023-03-23T08:44:20;10.85;;;4.25;;
74291;SDS011;62687;55.738;37.516;2023-03-23T08:47:05;7.60;;;3.95;;
74291;SDS011;62687;55.738;37.516;2023-03-23T08:49:50;6.18;;;3.80;;
74291;SDS011;62687;55.738;37.516;2023-03-23T08:52:36;13.32;;;4.50;;
74291;SDS011;62687;55.738;37.516;2023-03-23T08:55:21;10.55;;;4.40;;
74291;SDS011;62687;55.738;37.516;2023-03-23T08:58:06;9.40;;;4.50;;
74291;SDS011;62687;55.738;37.516;2023-03-23T09:00:50;9.63;;;4.78;;
74291;SDS011;62687;55.738;37.516;2023-03-23T09:03:35;9.40;;;4.32;;
74291;SDS011;62687;55.738;37.516;2023-03-23T09:06:19;19.42;;;5.18;;
74291;SDS011;62687;55.738;37.516;2023-03-23T09:09:04;8.23;;;4.43;;
74291;SDS011;62687;55.738;37.516;2023-03-23T09:11:53;13.85;;;4.93;;
74291;SDS011;62687;55.738;37.516;2023-03-23T09:14:38;6.85;;;3.72;;
74291;SDS011;62687;55.738;37.516;2023-03-23T09:17:24;17.70;;;4.85;;
74291;SDS011;62687;55.738;37.516;2023-03-23T09:20:10;10.20;;;4.28;;
74291;SDS011;62687;55.738;37.516;2023-03-23T09:22:57;16.20;;;4.70;;
74291;SDS011;62687;55.738;37.516;2023-03-23T09:25:41;14.82;;;4.88;;
74291;SDS011;62687;55.738;37.516;2023-03-23T09:28:25;13.45;;;4.32;;
74291;SDS011;62687;55.738;37.516;2023-03-23T09:31:09;6.85;;;3.72;;
74291;SDS011;62687;55.738;37.516;2023-03-23T09:33:54;8.55;;;4.05;;
74291;SDS011;62687;55.738;37.516;2023-03-23T09:36:40;7.60;;;3.70;;
74291;SDS011;62687;55.738;37.516;2023-03-23T09:39:24;7.63;;;3.70;;
74291;SDS011;62687;55.738;37.516;2023-03-23T09:42:16;10.82;;;3.95;;
74291;SDS011;62687;55.738;37.516;2023-03-23T09:45:26;14.18;;;4.30;;
74291;SDS011;62687;55.738;37.516;2023-03-23T09:51:42;5.95;;;3.90;;
74291;SDS011;62687;55.738;37.516;2023-03-23T09:54:32;9.18;;;3.45;;
74291;SDS011;62687;55.738;37.516;2023-03-23T10:03:18;5.90;;;3.08;;
74291;SDS011;62687;55.738;37.516;2023-03-23T10:06:07;13.00;;;3.60;;
74291;SDS011;62687;55.738;37.516;2023-03-23T10:08:55;8.13;;;3.13;;
74291;SDS011;62687;55.738;37.516;2023-03-23T10:14:31;7.97;;;3.78;;
74291;SDS011;62687;55.738;37.516;2023-03-23T10:26:17;7.78;;;3.67;;
74291;SDS011;62687;55.738;37.516;2023-03-23T10:29:32;6.88;;;3.50;;
74291;SDS011;62687;55.738;37.516;2023-03-23T10:32:22;7.45;;;2.90;;
74291;SDS011;62687;55.738;37.516;2023-03-23T10:35:26;4.93;;;3.10;;
74291;SDS011;62687;55.738;37.516;2023-03-23T10:38:20;12.20;;;3.30;;
74291;SDS011;62687;55.738;37.516;2023-03-23T10:41:10;4.90;;;2.83;;
74291;SDS011;62687;55.738;37.516;2023-03-23T10:43:55;6.85;;;2.92;;
74291;SDS011;62687;55.738;37.516;2023-03-23T10:46:44;9.00;;;3.22;;
74291;SDS011;62687;55.738;37.516;2023-03-23T10:49:42;9.18;;;3.05;;
74291;SDS011;62687;55.738;37.516;2023-03-23T10:52:35;5.30;;;3.20;;
74291;SDS011;62687;55.738;37.516;2023-03-23T10:55:22;20.08;;;3.60;;
74291;SDS011;62687;55.738;37.516;2023-03-23T10:58:11;6.05;;;2.83;;
74291;SDS011;62687;55.738;37.516;2023-03-23T11:01:17;9.73;;;2.90;;
74291;SDS011;62687;55.738;37.516;2023-03-23T11:04:10;7.97;;;4.00;;
74291;SDS011;62687;55.738;37.516;2023-03-23T11:07:01;11.35;;;3.28;;
74291;SDS011;62687;55.738;37.516;2023-03-23T11:09:53;8.48;;;3.38;;
74291;SDS011;62687;55.738;37.516;2023-03-23T11:12:39;5.30;;;3.00;;
74291;SDS011;62687;55.738;37.516;2023-03-23T11:15:29;9.63;;;2.88;;
74291;SDS011;62687;55.738;37.516;2023-03-23T11:18:19;8.45;;;2.95;;
74291;SDS011;62687;55.738;37.516;2023-03-23T11:21:08;6.22;;;2.63;;
74291;SDS011;62687;55.738;37.516;2023-03-23T11:23:57;6.45;;;2.83;;
74291;SDS011;62687;55.738;37.516;2023-03-23T11:26:43;8.80;;;2.80;;
74291;SDS011;62687;55.738;37.516;2023-03-23T11:29:29;10.98;;;2.75;;
74291;SDS011;62687;55.738;37.516;2023-03-23T11:32:14;8.00;;;2.70;;
74291;SDS011;62687;55.738;37.516;2023-03-23T11:35:02;3.55;;;2.00;;
74291;SDS011;62687;55.738;37.516;2023-03-23T11:37:53;8.93;;;2.92;;
74291;SDS011;62687;55.738;37.516;2023-03-23T11:40:43;14.48;;;4.03;;
74291;SDS011;62687;55.738;37.516;2023-03-23T11:43:34;9.15;;;2.80;;
74291;SDS011;62687;55.738;37.516;2023-03-23T11:46:34;5.80;;;2.70;;
74291;SDS011;62687;55.738;37.516;2023-03-23T11:49:32;8.95;;;2.50;;
74291;SDS011;62687;55.738;37.516;2023-03-23T11:52:50;9.13;;;3.40;;
74291;SDS011;62687;55.738;37.516;2023-03-23T11:55:50;8.60;;;2.63;;
74291;SDS011;62687;55.738;37.516;2023-03-23T11:58:40;4.40;;;2.53;;
74291;SDS011;62687;55.738;37.516;2023-03-23T12:10:56;3.92;;;2.70;;
74291;SDS011;62687;55.738;37.516;2023-03-23T12:35:21;7.38;;;2.50;;
74291;SDS011;62687;55.738;37.516;2023-03-23T12:38:28;14.40;;;2.95;;
74291;SDS011;62687;55.738;37.516;2023-03-23T12:41:19;7.50;;;2.30;;
74291;SDS011;62687;55.738;37.516;2023-03-23T12:44:35;7.93;;;2.55;;
74291;SDS011;62687;55.738;37.516;2023-03-23T12:47:36;8.00;;;3.00;;
74291;SDS011;62687;55.738;37.516;2023-03-23T12:50:40;6.78;;;2.55;;
74291;SDS011;62687;55.738;37.516;2023-03-23T12:53:30;5.68;;;2.63;;
74291;SDS011;62687;55.738;37.516;2023-03-23T12:56:24;7.50;;;2.53;;
74291;SDS011;62687;55.738;37.516;2023-03-23T13:02:13;6.20;;;2.33;;
74291;SDS011;62687;55.738;37.516;2023-03-23T13:05:08;4.57;;;2.38;;
74291;SDS011;62687;55.738;37.516;2023-03-23T13:08:17;5.22;;;2.63;;
74291;SDS011;62687;55.738;37.516;2023-03-23T13:11:08;6.70;;;2.67;;
74291;SDS011;62687;55.738;37.516;2023-03-23T13:14:06;6.90;;;2.58;;
74291;SDS011;62687;55.738;37.516;2023-03-23T13:17:20;8.10;;;2.90;;
74291;SDS011;62687;55.738;37.516;2023-03-23T13:26:13;5.82;;;2.70;;
74291;SDS011;62687;55.738;37.516;2023-03-23T13:29:06;8.80;;;2.55;;
74291;SDS011;62687;55.738;37.516;2023-03-23T13:32:15;10.38;;;2.90;;
74291;SDS011;62687;55.738;37.516;2023-03-23T13:35:02;6.97;;;2.47;;
74291;SDS011;62687;55.738;37.516;2023-03-23T13:37:50;18.27;;;3.15;;
74291;SDS011;62687;55.738;37.516;2023-03-23T13:40:36;7.45;;;2.38;;
74291;SDS011;62687;55.738;37.516;2023-03-23T13:43:30;10.23;;;3.17;;
74291;SDS011;62687;55.738;37.516;2023-03-23T13:52:00;6.20;;;2.38;;
74291;SDS011;62687;55.738;37.516;2023-03-23T13:58:26;8.70;;;2.28;;
74291;SDS011;62687;55.738;37.516;2023-03-23T14:01:12;5.65;;;2.40;;
74291;SDS011;62687;55.738;37.516;2023-03-23T14:04:00;8.73;;;2.53;;
74291;SDS011;62687;55.738;37.516;2023-03-23T14:06:45;8.95;;;2.65;;
74291;SDS011;62687;55.738;37.516;2023-03-23T14:09:33;9.93;;;3.53;;
74291;SDS011;62687;55.738;37.516;2023-03-23T14:12:26;7.57;;;2.50;;
74291;SDS011;62687;55.738;37.516;2023-03-23T14:15:13;9.77;;;3.50;;
74291;SDS011;62687;55.738;37.516;2023-03-23T14:17:58;5.80;;;3.17;;
74291;SDS011;62687;55.738;37.516;2023-03-23T14:20:46;8.80;;;2.63;;
74291;SDS011;62687;55.738;37.516;2023-03-23T14:26:02;7.22;;;2.42;;
74291;SDS011;62687;55.738;37.516;2023-03-23T14:28:53;9.75;;;2.97;;
74291;SDS011;62687;55.738;37.516;2023-03-23T14:31:38;5.05;;;2.38;;
74291;SDS011;62687;55.738;37.516;2023-03-23T14:34:25;7.05;;;2.53;;
74291;SDS011;62687;55.738;37.516;2023-03-23T14:37:14;7.95;;;2.95;;
74291;SDS011;62687;55.738;37.516;2023-03-23T14:39:59;5.80;;;2.70;;
74291;SDS011;62687;55.738;37.516;2023-03-23T14:42:43;5.45;;;2.63;;
74291;SDS011;62687;55.738;37.516;2023-03-23T14:45:28;4.85;;;2.53;;
74291;SDS011;62687;55.738;37.516;2023-03-23T14:48:13;5.63;;;2.65;;
74291;SDS011;62687;55.738;37.516;2023-03-23T14:51:00;7.10;;;3.30;;
74291;SDS011;62687;55.738;37.516;2023-03-23T14:53:48;6.72;;;2.80;;
74291;SDS011;62687;55.738;37.516;2023-03-23T14:56:35;5.35;;;2.72;;
74291;SDS011;62687;55.738;37.516;2023-03-23T14:59:20;4.90;;;2.55;;
74291;SDS011;62687;55.738;37.516;2023-03-23T15:02:05;9.98;;;3.33;;
74291;SDS011;62687;55.738;37.516;2023-03-23T15:05:01;5.50;;;3.33;;
74291;SDS011;62687;55.738;37.516;2023-03-23T15:07:53;3.90;;;2.33;;
74291;SDS011;62687;55.738;37.516;2023-03-23T15:10:40;5.65;;;3.00;;
74291;SDS011;62687;55.738;37.516;2023-03-23T15:13:24;5.57;;;2.72;;
74291;SDS011;62687;55.738;37.516;2023-03-23T15:16:13;8.60;;;3.05;;
74291;SDS011;62687;55.738;37.516;2023-03-23T15:19:04;4.05;;;2.80;;
74291;SDS011;62687;55.738;37.516;2023-03-23T15:21:55;5.47;;;2.70;;
74291;SDS011;62687;55.738;37.516;2023-03-23T15:24:41;8.43;;;2.90;;
74291;SDS011;62687;55.738;37.516;2023-03-23T15:27:29;4.55;;;3.10;;
74291;SDS011;62687;55.738;37.516;2023-03-23T15:33:08;17.25;;;3.40;;
74291;SDS011;62687;55.738;37.516;2023-03-23T15:35:57;5.53;;;2.60;;
74291;SDS011;62687;55.738;37.516;2023-03-23T15:38:45;6.03;;;3.03;;
74291;SDS011;62687;55.738;37.516;2023-03-23T15:41:31;13.13;;;3.40;;
74291;SDS011;62687;55.738;37.516;2023-03-23T15:44:26;5.15;;;2.90;;
74291;SDS011;62687;55.738;37.516;2023-03-23T15:47:15;8.10;;;2.90;;
74291;SDS011;62687;55.738;37.516;2023-03-23T15:50:47;7.20;;;2.63;;
74291;SDS011;62687;55.738;37.516;2023-03-23T15:53:27;5.60;;;2.60;;
74291;SDS011;62687;55.738;37.516;2023-03-23T15:56:18;4.68;;;2.67;;
74291;SDS011;62687;55.738;37.516;2023-03-23T15:59:03;6.28;;;2.80;;
74291;SDS011;62687;55.738;37.516;2023-03-23T16:01:47;5.38;;;2.88;;
74291;SDS011;62687;55.738;37.516;2023-03-23T16:04:32;7.43;;;3.08;;
74291;SDS011;62687;55.738;37.516;2023-03-23T16:07:16;6.80;;;2.80;;
74291;SDS011;62687;55.738;37.516;2023-03-23T16:10:04;6.57;;;2.50;;
74291;SDS011;62687;55.738;37.516;2023-03-23T16:12:50;5.78;;;2.72;;
74291;SDS011;62687;55.738;37.516;2023-03-23T16:15:35;6.38;;;2.55;;
74291;SDS011;62687;55.738;37.516;2023-03-23T16:18:20;8.20;;;3.17;;
74291;SDS011;62687;55.738;37.516;2023-03-23T16:21:05;8.38;;;2.90;;
74291;SDS011;62687;55.738;37.516;2023-03-23T16:23:49;9.30;;;3.58;;
74291;SDS011;62687;55.738;37.516;2023-03-23T16:26:34;6.65;;;2.75;;
74291;SDS011;62687;55.738;37.516;2023-03-23T16:29:19;5.15;;;2.60;;
74291;SDS011;62687;55.738;37.516;2023-03-23T16:32:03;6.70;;;3.15;;
74291;SDS011;62687;55.738;37.516;2023-03-23T16:34:49;5.50;;;2.58;;
74291;SDS011;62687;55.738;37.516;2023-03-23T16:37:34;5.60;;;2.75;;
74291;SDS011;62687;55.738;37.516;2023-03-23T16:43:04;10.57;;;3.05;;
74291;SDS011;62687;55.738;37.516;2023-03-23T16:45:48;7.85;;;3.40;;
74291;SDS011;62687;55.738;37.516;2023-03-23T16:48:33;8.68;;;3.33;;
74291;SDS011;62687;55.738;37.516;2023-03-23T16:51:20;7.95;;;3.22;;
74291;SDS011;62687;55.738;37.516;2023-03-23T16:54:05;8.40;;;3.13;;
74291;SDS011;62687;55.738;37.516;2023-03-23T16:56:49;10.02;;;3.25;;
74291;SDS011;62687;55.738;37.516;2023-03-23T16:59:34;9.23;;;3.53;;
74291;SDS011;62687;55.738;37.516;2023-03-23T17:02:18;7.43;;;3.05;;
74291;SDS011;62687;55.738;37.516;2023-03-23T17:05:03;6.93;;;3.22;;
74291;SDS011;62687;55.738;37.516;2023-03-23T17:10:32;8.73;;;3.20;;
74291;SDS011;62687;55.738;37.516;2023-03-23T17:13:20;9.45;;;3.25;;
74291;SDS011;62687;55.738;37.516;2023-03-23T17:16:04;13.57;;;5.13;;
74291;SDS011;62687;55.738;37.516;2023-03-23T17:18:49;9.18;;;3.60;;
74291;SDS011;62687;55.738;37.516;2023-03-23T17:21:34;9.32;;;3.05;;
74291;SDS011;62687;55.738;37.516;2023-03-23T17:24:19;6.55;;;2.95;;
74291;SDS011;62687;55.738;37.516;2023-03-23T17:27:03;9.70;;;3.45;;
74291;SDS011;62687;55.738;37.516;2023-03-23T17:29:48;7.38;;;3.78;;
74291;SDS011;62687;55.738;37.516;2023-03-23T17:32:33;9.35;;;3.45;;
74291;SDS011;62687;55.738;37.516;2023-03-23T17:35:17;9.98;;;3.58;;
74291;SDS011;62687;55.738;37.516;2023-03-23T17:38:01;5.65;;;3.28;;
74291;SDS011;62687;55.738;37.516;2023-03-23T17:40:45;7.18;;;3.50;;
74291;SDS011;62687;55.738;37.516;2023-03-23T17:43:29;12.38;;;3.80;;
74291;SDS011;62687;55.738;37.516;2023-03-23T17:46:14;7.70;;;3.60;;
74291;SDS011;62687;55.738;37.516;2023-03-23T17:48:59;5.97;;;3.15;;
74291;SDS011;62687;55.738;37.516;2023-03-23T17:51:43;13.23;;;3.75;;
74291;SDS011;62687;55.738;37.516;2023-03-23T17:54:27;6.43;;;3.30;;
74291;SDS011;62687;55.738;37.516;2023-03-23T17:57:14;8.43;;;4.00;;
74291;SDS011;62687;55.738;37.516;2023-03-23T17:59:58;8.13;;;3.60;;
74291;SDS011;62687;55.738;37.516;2023-03-23T18:02:42;9.07;;;4.55;;
74291;SDS011;62687;55.738;37.516;2023-03-23T18:05:27;9.40;;;3.45;;
74291;SDS011;62687;55.738;37.516;2023-03-23T18:08:11;8.57;;;4.72;;
74291;SDS011;62687;55.738;37.516;2023-03-23T18:10:56;12.48;;;4.70;;
74291;SDS011;62687;55.738;37.516;2023-03-23T18:13:41;8.63;;;4.18;;
74291;SDS011;62687;55.738;37.516;2023-03-23T18:16:26;10.43;;;4.93;;
74291;SDS011;62687;55.738;37.516;2023-03-23T18:19:10;10.15;;;4.35;;
74291;SDS011;62687;55.738;37.516;2023-03-23T18:21:54;9.30;;;4.38;;
74291;SDS011;62687;55.738;37.516;2023-03-23T18:24:39;8.23;;;4.38;;
74291;SDS011;62687;55.738;37.516;2023-03-23T18:27:23;7.47;;;4.10;;